createdAt,value
2023-04-17T00:00:26.369Z,13.70
2023-04-17T00:05:31.918Z,13.70
2023-04-17T00:10:34.959Z,13.70
2023-04-17T00:15:38.159Z,13.70
2023-04-17T00:20:41.418Z,13.80
2023-04-17T00:25:44.476Z,13.80
2023-04-17T00:30:47.374Z,13.80
2023-04-17T00:35:50.470Z,13.80
2023-04-17T00:40:53.841Z,13.80
2023-04-17T00:45:57.510Z,13.90
2023-04-17T00:51:03.474Z,13.90
2023-04-17T00:56:07.109Z,13.90
2023-04-17T01:01:10.293Z,13.90
2023-04-17T01:06:13.309Z,13.90
2023-04-17T01:11:16.262Z,13.90
2023-04-17T01:16:20.935Z,13.90
2023-04-17T01:21:24.038Z,13.90
2023-04-17T01:26:30.894Z,13.90
2023-04-17T01:31:34.394Z,13.80
2023-04-17T01:36:37.313Z,13.80
2023-04-17T01:41:40.625Z,13.70
2023-04-17T01:46:43.580Z,13.50
2023-04-17T01:51:46.566Z,13.40
2023-04-17T01:56:49.508Z,13.40
2023-04-17T02:01:53.465Z,13.40
2023-04-17T02:06:56.366Z,13.30
2023-04-17T02:11:59.303Z,13.20
2023-04-17T02:17:02.543Z,13.20
2023-04-17T02:22:05.690Z,13.10
2023-04-17T02:27:08.561Z,13.00
2023-04-17T02:32:11.513Z,12.90
2023-04-17T02:37:14.613Z,12.90
2023-04-17T02:42:17.539Z,12.80
2023-04-17T02:47:20.586Z,12.80
2023-04-17T02:52:23.957Z,12.80
2023-04-17T02:57:27.269Z,12.80
2023-04-17T03:02:30.664Z,12.90
2023-04-17T03:07:33.971Z,12.90
2023-04-17T03:12:37.351Z,13.00
2023-04-17T03:17:40.544Z,13.00
2023-04-17T03:22:43.533Z,13.00
2023-04-17T03:27:46.811Z,13.00
2023-04-17T03:32:50.403Z,13.00
2023-04-17T03:37:53.529Z,13.00
2023-04-17T03:42:56.539Z,13.00
2023-04-17T03:47:59.531Z,13.00
2023-04-17T03:53:02.601Z,12.90
2023-04-17T03:58:05.551Z,13.00
2023-04-17T04:03:08.645Z,13.00
2023-04-17T04:08:11.620Z,13.00
2023-04-17T04:13:14.570Z,13.00
2023-04-17T04:18:17.554Z,13.00
2023-04-17T04:23:21.290Z,13.10
2023-04-17T04:28:24.523Z,13.20
2023-04-17T04:33:27.731Z,13.20
2023-04-17T04:38:31.173Z,13.30
2023-04-17T04:43:34.279Z,13.30
2023-04-17T04:48:37.721Z,13.40
2023-04-17T04:53:41.626Z,13.50
2023-04-17T04:58:44.574Z,13.60
2023-04-17T05:03:47.792Z,13.70
2023-04-17T05:08:52.105Z,13.70
2023-04-17T05:13:54.824Z,13.80
2023-04-17T05:18:59.020Z,14.00
2023-04-17T05:24:02.063Z,14.10
2023-04-17T05:29:05.156Z,14.20
2023-04-17T05:34:08.602Z,14.30
2023-04-17T05:39:11.880Z,14.50
2023-04-17T05:44:14.956Z,14.60
2023-04-17T05:49:18.092Z,14.60
2023-04-17T05:54:21.078Z,14.70
2023-04-17T05:59:24.024Z,14.70
2023-04-17T06:04:27.181Z,14.70
2023-04-17T06:09:30.378Z,14.70
2023-04-17T06:14:33.527Z,14.70
2023-04-17T06:19:36.552Z,14.80
2023-04-17T06:24:39.456Z,14.90
2023-04-17T06:29:42.283Z,15.00
2023-04-17T06:34:58.593Z,15.10
2023-04-17T06:40:02.685Z,15.10
2023-04-17T06:45:07.059Z,15.20
2023-04-17T06:50:10.542Z,15.30
2023-04-17T06:55:13.722Z,15.30
2023-04-17T07:00:17.219Z,15.50
2023-04-17T07:05:20.336Z,15.70
2023-04-17T07:10:23.620Z,16.10
2023-04-17T07:15:30.636Z,16.40
2023-04-17T07:20:33.793Z,16.60
2023-04-17T07:25:36.730Z,16.70
2023-04-17T07:30:39.756Z,16.90
2023-04-17T07:35:43.981Z,17.10
2023-04-17T07:40:46.991Z,17.30
2023-04-17T07:45:50.103Z,17.80
2023-04-17T07:50:53.522Z,18.40
2023-04-17T07:55:58.413Z,18.60
2023-04-17T08:01:05.629Z,18.60
2023-04-17T08:06:08.659Z,18.50
2023-04-17T08:11:11.677Z,18.40
2023-04-17T08:16:14.852Z,18.50
2023-04-17T08:21:17.900Z,18.40
2023-04-17T08:26:20.936Z,18.30
2023-04-17T08:31:23.916Z,18.20
2023-04-17T08:36:27.569Z,18.20
2023-04-17T08:41:39.453Z,18.40
2023-04-17T08:46:42.733Z,18.50
2023-04-17T08:51:47.243Z,18.60
2023-04-17T08:56:50.714Z,18.80
2023-04-17T09:02:05.068Z,18.80
2023-04-17T09:07:11.198Z,18.80
2023-04-17T09:12:14.807Z,18.90
2023-04-17T09:17:20.289Z,19.50
2023-04-17T09:22:23.384Z,20.20
2023-04-17T09:27:28.127Z,20.40
2023-04-17T09:32:33.055Z,20.50
2023-04-17T09:37:51.608Z,20.30
2023-04-17T09:43:00.372Z,20.60
2023-04-17T09:48:13.036Z,20.90
2023-04-17T09:53:18.308Z,21.50
2023-04-17T09:58:22.262Z,22.30
2023-04-17T10:03:26.463Z,22.80
2023-04-17T10:08:29.578Z,23.20
2023-04-17T10:13:38.789Z,23.00
2023-04-17T10:18:42.117Z,22.60
2023-04-17T10:23:45.324Z,22.00
2023-04-17T10:28:50.046Z,22.00
2023-04-17T10:33:54.629Z,22.40
2023-04-17T10:39:16.422Z,22.50
2023-04-17T10:44:19.413Z,22.80
2023-04-17T10:49:22.420Z,23.00
2023-04-17T10:54:25.507Z,22.80
2023-04-17T10:59:30.285Z,22.20
2023-04-17T11:04:36.122Z,21.80
2023-04-17T11:09:40.042Z,21.40
2023-04-17T11:14:44.013Z,21.20
2023-04-17T11:19:47.905Z,20.90
2023-04-17T11:24:51.827Z,20.80
2023-04-17T11:29:54.951Z,21.00
2023-04-17T11:34:58.117Z,20.90
2023-04-17T11:40:10.267Z,21.00
2023-04-17T11:45:13.365Z,21.50
2023-04-17T11:50:16.461Z,22.10
2023-04-17T11:55:19.615Z,22.50
2023-04-17T12:00:27.587Z,22.40
2023-04-17T12:05:31.506Z,22.40
2023-04-17T12:10:40.968Z,22.60
2023-04-17T12:15:44.022Z,23.00
2023-04-17T12:20:48.661Z,23.10
2023-04-17T12:25:51.646Z,22.80
2023-04-17T12:30:54.461Z,22.40
2023-04-17T12:35:57.949Z,22.20
2023-04-17T12:41:01.048Z,22.00
2023-04-17T12:46:04.554Z,21.80
2023-04-17T12:51:11.663Z,21.80
2023-04-17T12:56:15.239Z,22.80
2023-04-17T13:01:18.498Z,24.00
2023-04-17T13:06:21.588Z,24.20
2023-04-17T13:11:24.772Z,24.80
2023-04-17T13:16:27.846Z,26.00
2023-04-17T13:21:31.173Z,26.40
2023-04-17T13:26:36.597Z,25.80
2023-04-17T13:31:39.576Z,24.10
2023-04-17T13:36:45.097Z,22.20
2023-04-17T13:41:48.573Z,20.50
2023-04-17T13:46:52.316Z,19.50
2023-04-17T13:51:55.605Z,18.90
2023-04-17T13:56:58.736Z,18.60
2023-04-17T14:02:04.180Z,18.40
2023-04-17T14:07:08.299Z,18.20
2023-04-17T14:12:11.198Z,18.00
2023-04-17T14:17:14.248Z,18.10
2023-04-17T14:22:17.263Z,18.30
2023-04-17T14:27:20.301Z,18.40
2023-04-17T14:32:23.434Z,18.40
2023-04-17T14:37:28.063Z,18.40
2023-04-17T14:42:32.695Z,18.40
2023-04-17T14:47:39.268Z,18.40
2023-04-17T14:52:42.274Z,18.30
2023-04-17T14:57:45.113Z,18.20
2023-04-17T15:02:49.191Z,18.10
2023-04-17T15:07:53.506Z,18.20
2023-04-17T15:13:00.253Z,18.10
2023-04-17T15:18:03.280Z,18.20
2023-04-17T15:23:06.421Z,18.10
2023-04-17T15:28:09.785Z,18.20
2023-04-17T15:33:14.104Z,18.20
2023-04-17T15:38:17.052Z,18.20
2023-04-17T15:43:21.186Z,18.20
2023-04-17T15:48:24.115Z,18.20
2023-04-17T15:53:27.032Z,18.20
2023-04-17T15:58:30.143Z,18.00
2023-04-17T16:03:33.517Z,18.00
2023-04-17T16:08:37.394Z,17.90
2023-04-17T16:13:40.539Z,17.90
2023-04-17T16:18:46.883Z,17.80
2023-04-17T16:23:50.015Z,17.70
2023-04-17T16:28:53.004Z,17.60
2023-04-17T16:33:56.172Z,17.60
2023-04-17T16:38:59.182Z,17.50
2023-04-17T16:44:02.139Z,17.40
2023-04-17T16:49:10.034Z,17.30
2023-04-17T16:54:13.652Z,17.20
2023-04-17T16:59:16.822Z,17.10
2023-04-17T17:04:19.975Z,17.00
2023-04-17T17:09:23.158Z,16.90
2023-04-17T17:14:26.167Z,16.80
2023-04-17T17:19:29.139Z,16.70
2023-04-17T17:24:32.400Z,16.60
2023-04-17T17:29:35.935Z,16.50
2023-04-17T17:34:39.252Z,16.30
2023-04-17T17:39:42.210Z,16.10
2023-04-17T17:44:45.784Z,16.00
2023-04-17T17:49:49.470Z,15.80
2023-04-17T17:54:52.820Z,15.60
2023-04-17T17:59:55.901Z,15.50
2023-04-17T18:04:58.957Z,15.30
2023-04-17T18:10:02.115Z,15.20
2023-04-17T18:15:06.406Z,15.20
2023-04-17T18:20:11.871Z,15.20
2023-04-17T18:25:15.111Z,15.20
2023-04-17T18:30:18.447Z,15.10
2023-04-17T18:35:21.270Z,15.10
2023-04-17T18:40:24.666Z,15.10
2023-04-17T18:45:29.329Z,15.10
2023-04-17T18:50:33.270Z,15.10
2023-04-17T18:55:39.650Z,15.20
2023-04-17T19:00:43.060Z,15.20
2023-04-17T19:05:46.527Z,15.20
2023-04-17T19:10:49.833Z,15.10
2023-04-17T19:15:53.037Z,15.10
2023-04-17T19:20:56.424Z,15.10
2023-04-17T19:25:59.397Z,15.10
2023-04-17T19:31:06.264Z,15.10
2023-04-17T19:36:09.379Z,15.10
2023-04-17T19:41:19.771Z,15.20
2023-04-17T19:46:24.596Z,15.20
2023-04-17T19:51:27.927Z,15.20
2023-04-17T19:56:31.157Z,15.30
2023-04-17T20:01:35.488Z,15.20
2023-04-17T20:06:39.736Z,15.20
2023-04-17T20:11:43.056Z,15.20
2023-04-17T20:16:46.654Z,15.20
2023-04-17T20:21:49.458Z,15.20
2023-04-17T20:26:53.204Z,15.10
2023-04-17T20:31:56.062Z,15.10
2023-04-17T20:36:58.998Z,15.00
2023-04-17T20:42:02.025Z,14.90
2023-04-17T20:47:05.666Z,14.80
2023-04-17T20:52:08.677Z,14.80
2023-04-17T20:57:11.650Z,14.70
2023-04-17T21:02:16.262Z,14.60
2023-04-17T21:07:19.854Z,14.60
2023-04-17T21:12:23.195Z,14.60
2023-04-17T21:17:26.242Z,14.50
2023-04-17T21:22:29.235Z,14.50
2023-04-17T21:27:32.236Z,14.50
2023-04-17T21:32:35.218Z,14.50
2023-04-17T21:37:38.369Z,14.40
2023-04-17T21:42:41.411Z,14.30
2023-04-17T21:47:45.331Z,14.20
2023-04-17T21:52:48.475Z,14.00
2023-04-17T21:57:51.752Z,13.90
2023-04-17T22:02:54.754Z,13.90
2023-04-17T22:07:57.815Z,13.90
2023-04-17T22:13:00.916Z,13.80
2023-04-17T22:18:04.219Z,13.80
2023-04-17T22:23:07.636Z,13.80
2023-04-17T22:28:10.613Z,13.90
2023-04-17T22:33:13.583Z,13.90
2023-04-17T22:38:18.264Z,13.90
2023-04-17T22:43:21.221Z,13.90
2023-04-17T22:48:24.628Z,13.90
2023-04-17T22:53:27.799Z,13.90
2023-04-17T22:58:33.955Z,13.90
2023-04-17T23:03:37.267Z,13.90
2023-04-17T23:08:40.372Z,13.90
2023-04-17T23:13:43.671Z,13.80
2023-04-17T23:18:46.695Z,13.80
2023-04-17T23:23:49.566Z,13.70
2023-04-17T23:28:52.557Z,13.50
2023-04-17T23:33:55.331Z,13.30
2023-04-17T23:38:58.283Z,13.10
2023-04-17T23:44:01.322Z,12.90
2023-04-17T23:49:05.152Z,12.70
2023-04-17T23:54:08.217Z,12.60
2023-04-17T23:59:11.657Z,12.50
